sensor_id;sensor_type;location;lat;lon;timestamp;P1;durP1;ratioP1;P2;durP2;ratioP2
20861;SDS011;10591;52.532;13.348;2022-11-12T00:02:09;7.20;;;5.53;;
20861;SDS011;10591;52.532;13.348;2022-11-12T00:04:40;9.10;;;5.40;;
20861;SDS011;10591;52.532;13.348;2022-11-12T00:07:10;7.95;;;5.37;;
20861;SDS011;10591;52.532;13.348;2022-11-12T00:09:41;8.63;;;5.70;;
20861;SDS011;10591;52.532;13.348;2022-11-12T00:12:11;6.92;;;5.50;;
20861;SDS011;10591;52.532;13.348;2022-11-12T00:14:42;8.13;;;5.67;;
20861;SDS011;10591;52.532;13.348;2022-11-12T00:17:12;7.63;;;5.43;;
20861;SDS011;10591;52.532;13.348;2022-11-12T00:19:42;9.25;;;5.85;;
20861;SDS011;10591;52.532;13.348;2022-11-12T00:22:13;7.33;;;5.33;;
20861;SDS011;10591;52.532;13.348;2022-11-12T00:24:44;8.63;;;5.25;;
20861;SDS011;10591;52.532;13.348;2022-11-12T00:27:14;8.28;;;5.83;;
20861;SDS011;10591;52.532;13.348;2022-11-12T00:29:45;6.42;;;5.55;;
20861;SDS011;10591;52.532;13.348;2022-11-12T00:32:16;7.40;;;5.60;;
20861;SDS011;10591;52.532;13.348;2022-11-12T00:34:47;6.43;;;5.50;;
20861;SDS011;10591;52.532;13.348;2022-11-12T00:37:17;7.50;;;5.25;;
20861;SDS011;10591;52.532;13.348;2022-11-12T00:39:49;7.75;;;5.70;;
20861;SDS011;10591;52.532;13.348;2022-11-12T00:42:20;7.87;;;5.97;;
20861;SDS011;10591;52.532;13.348;2022-11-12T00:44:50;7.87;;;5.15;;
20861;SDS011;10591;52.532;13.348;2022-11-12T00:47:21;7.47;;;5.87;;
20861;SDS011;10591;52.532;13.348;2022-11-12T00:49:52;8.18;;;5.22;;
20861;SDS011;10591;52.532;13.348;2022-11-12T00:52:23;7.22;;;5.20;;
20861;SDS011;10591;52.532;13.348;2022-11-12T00:54:53;7.05;;;5.33;;
20861;SDS011;10591;52.532;13.348;2022-11-12T00:57:24;8.68;;;5.72;;
20861;SDS011;10591;52.532;13.348;2022-11-12T00:59:54;6.28;;;5.40;;
20861;SDS011;10591;52.532;13.348;2022-11-12T01:02:25;8.83;;;6.12;;
20861;SDS011;10591;52.532;13.348;2022-11-12T01:04:55;6.70;;;5.57;;
20861;SDS011;10591;52.532;13.348;2022-11-12T01:07:26;9.03;;;5.55;;
20861;SDS011;10591;52.532;13.348;2022-11-12T01:09:56;7.90;;;5.53;;
20861;SDS011;10591;52.532;13.348;2022-11-12T01:12:29;8.85;;;5.72;;
20861;SDS011;10591;52.532;13.348;2022-11-12T01:14:59;7.30;;;5.10;;
20861;SDS011;10591;52.532;13.348;2022-11-12T01:17:30;7.07;;;5.73;;
20861;SDS011;10591;52.532;13.348;2022-11-12T01:20:01;7.67;;;5.87;;
20861;SDS011;10591;52.532;13.348;2022-11-12T01:22:31;9.50;;;6.03;;
20861;SDS011;10591;52.532;13.348;2022-11-12T01:25:02;9.47;;;5.83;;
20861;SDS011;10591;52.532;13.348;2022-11-12T01:27:32;7.13;;;5.80;;
20861;SDS011;10591;52.532;13.348;2022-11-12T01:30:03;6.95;;;5.75;;
20861;SDS011;10591;52.532;13.348;2022-11-12T01:32:35;7.62;;;6.10;;
20861;SDS011;10591;52.532;13.348;2022-11-12T01:35:05;7.30;;;5.80;;
20861;SDS011;10591;52.532;13.348;2022-11-12T01:37:36;7.70;;;5.62;;
20861;SDS011;10591;52.532;13.348;2022-11-12T01:40:07;5.20;;;4.70;;
20861;SDS011;10591;52.532;13.348;2022-11-12T01:42:38;9.23;;;5.62;;
20861;SDS011;10591;52.532;13.348;2022-11-12T01:45:12;7.67;;;5.65;;
20861;SDS011;10591;52.532;13.348;2022-11-12T01:47:44;7.22;;;5.50;;
20861;SDS011;10591;52.532;13.348;2022-11-12T01:53:04;5.80;;;4.57;;
20861;SDS011;10591;52.532;13.348;2022-11-12T01:55:36;5.60;;;4.42;;
20861;SDS011;10591;52.532;13.348;2022-11-12T01:58:13;7.47;;;4.30;;
20861;SDS011;10591;52.532;13.348;2022-11-12T02:00:40;6.22;;;4.42;;
20861;SDS011;10591;52.532;13.348;2022-11-12T02:03:12;5.70;;;3.90;;
20861;SDS011;10591;52.532;13.348;2022-11-12T02:05:52;6.33;;;4.25;;
20861;SDS011;10591;52.532;13.348;2022-11-12T02:08:24;5.78;;;4.28;;
20861;SDS011;10591;52.532;13.348;2022-11-12T02:10:56;5.62;;;4.35;;
20861;SDS011;10591;52.532;13.348;2022-11-12T02:13:27;5.28;;;4.33;;
20861;SDS011;10591;52.532;13.348;2022-11-12T02:16:15;5.58;;;4.50;;
20861;SDS011;10591;52.532;13.348;2022-11-12T02:18:45;5.93;;;4.30;;
20861;SDS011;10591;52.532;13.348;2022-11-12T02:21:20;6.53;;;4.90;;
20861;SDS011;10591;52.532;13.348;2022-11-12T02:23:58;7.13;;;5.00;;
20861;SDS011;10591;52.532;13.348;2022-11-12T02:26:34;7.97;;;4.67;;
20861;SDS011;10591;52.532;13.348;2022-11-12T02:29:06;6.23;;;4.90;;
20861;SDS011;10591;52.532;13.348;2022-11-12T02:31:37;6.47;;;4.70;;
20861;SDS011;10591;52.532;13.348;2022-11-12T02:34:07;5.30;;;4.57;;
20861;SDS011;10591;52.532;13.348;2022-11-12T02:36:38;5.85;;;4.33;;
20861;SDS011;10591;52.532;13.348;2022-11-12T02:39:08;6.72;;;5.03;;
20861;SDS011;10591;52.532;13.348;2022-11-12T02:41:39;5.77;;;4.20;;
20861;SDS011;10591;52.532;13.348;2022-11-12T02:44:09;8.08;;;4.78;;
20861;SDS011;10591;52.532;13.348;2022-11-12T02:46:40;6.30;;;4.72;;
20861;SDS011;10591;52.532;13.348;2022-11-12T02:49:10;5.40;;;4.77;;
20861;SDS011;10591;52.532;13.348;2022-11-12T02:51:40;6.73;;;4.77;;
20861;SDS011;10591;52.532;13.348;2022-11-12T02:54:11;6.25;;;4.33;;
20861;SDS011;10591;52.532;13.348;2022-11-12T02:56:41;7.33;;;4.80;;
20861;SDS011;10591;52.532;13.348;2022-11-12T02:59:12;7.33;;;4.60;;
20861;SDS011;10591;52.532;13.348;2022-11-12T03:01:42;6.53;;;4.67;;
20861;SDS011;10591;52.532;13.348;2022-11-12T03:04:13;7.25;;;5.28;;
20861;SDS011;10591;52.532;13.348;2022-11-12T03:06:43;5.57;;;4.63;;
20861;SDS011;10591;52.532;13.348;2022-11-12T03:09:14;6.05;;;4.72;;
20861;SDS011;10591;52.532;13.348;2022-11-12T03:11:44;6.22;;;4.50;;
20861;SDS011;10591;52.532;13.348;2022-11-12T03:14:14;5.20;;;4.35;;
20861;SDS011;10591;52.532;13.348;2022-11-12T03:16:45;5.73;;;4.43;;
20861;SDS011;10591;52.532;13.348;2022-11-12T03:19:15;7.55;;;4.28;;
20861;SDS011;10591;52.532;13.348;2022-11-12T03:21:46;5.20;;;4.70;;
20861;SDS011;10591;52.532;13.348;2022-11-12T03:24:16;9.03;;;4.83;;
20861;SDS011;10591;52.532;13.348;2022-11-12T03:26:47;6.13;;;4.37;;
20861;SDS011;10591;52.532;13.348;2022-11-12T03:29:17;6.20;;;4.45;;
20861;SDS011;10591;52.532;13.348;2022-11-12T03:31:47;5.23;;;4.67;;
20861;SDS011;10591;52.532;13.348;2022-11-12T03:34:18;6.15;;;5.30;;
20861;SDS011;10591;52.532;13.348;2022-11-12T03:36:48;6.15;;;4.22;;
20861;SDS011;10591;52.532;13.348;2022-11-12T03:39:18;6.17;;;4.30;;
20861;SDS011;10591;52.532;13.348;2022-11-12T03:41:49;4.85;;;4.00;;
20861;SDS011;10591;52.532;13.348;2022-11-12T03:44:19;5.95;;;4.40;;
20861;SDS011;10591;52.532;13.348;2022-11-12T03:46:50;5.95;;;3.98;;
20861;SDS011;10591;52.532;13.348;2022-11-12T03:49:20;5.22;;;4.00;;
20861;SDS011;10591;52.532;13.348;2022-11-12T03:51:50;5.20;;;4.45;;
20861;SDS011;10591;52.532;13.348;2022-11-12T03:54:21;5.10;;;4.05;;
20861;SDS011;10591;52.532;13.348;2022-11-12T03:56:51;4.78;;;4.10;;
20861;SDS011;10591;52.532;13.348;2022-11-12T03:59:22;5.25;;;4.35;;
20861;SDS011;10591;52.532;13.348;2022-11-12T04:01:52;4.80;;;4.20;;
20861;SDS011;10591;52.532;13.348;2022-11-12T04:04:22;6.47;;;3.80;;
20861;SDS011;10591;52.532;13.348;2022-11-12T04:06:55;4.97;;;3.90;;
20861;SDS011;10591;52.532;13.348;2022-11-12T04:09:43;4.83;;;4.10;;
20861;SDS011;10591;52.532;13.348;2022-11-12T04:12:13;6.50;;;4.15;;
20861;SDS011;10591;52.532;13.348;2022-11-12T04:15:01;8.88;;;5.60;;
20861;SDS011;10591;52.532;13.348;2022-11-12T04:17:32;7.70;;;4.27;;
20861;SDS011;10591;52.532;13.348;2022-11-12T04:20:21;7.62;;;4.50;;
20861;SDS011;10591;52.532;13.348;2022-11-12T04:23:09;5.75;;;4.10;;
20861;SDS011;10591;52.532;13.348;2022-11-12T04:25:40;4.83;;;3.90;;
20861;SDS011;10591;52.532;13.348;2022-11-12T04:28:28;5.50;;;4.40;;
20861;SDS011;10591;52.532;13.348;2022-11-12T04:30:59;7.20;;;4.50;;
20861;SDS011;10591;52.532;13.348;2022-11-12T04:33:29;6.22;;;4.45;;
20861;SDS011;10591;52.532;13.348;2022-11-12T04:36:00;6.85;;;4.35;;
20861;SDS011;10591;52.532;13.348;2022-11-12T04:38:30;5.47;;;4.30;;
20861;SDS011;10591;52.532;13.348;2022-11-12T04:41:01;5.05;;;4.12;;
20861;SDS011;10591;52.532;13.348;2022-11-12T04:43:49;5.03;;;4.43;;
20861;SDS011;10591;52.532;13.348;2022-11-12T04:46:38;7.70;;;4.50;;
20861;SDS011;10591;52.532;13.348;2022-11-12T04:49:08;7.80;;;4.75;;
20861;SDS011;10591;52.532;13.348;2022-11-12T04:51:38;5.90;;;4.25;;
20861;SDS011;10591;52.532;13.348;2022-11-12T04:54:27;6.25;;;4.75;;
20861;SDS011;10591;52.532;13.348;2022-11-12T04:56:57;5.90;;;4.53;;
20861;SDS011;10591;52.532;13.348;2022-11-12T04:59:28;5.80;;;4.60;;
20861;SDS011;10591;52.532;13.348;2022-11-12T05:01:59;7.95;;;4.60;;
20861;SDS011;10591;52.532;13.348;2022-11-12T05:04:29;6.17;;;4.40;;
20861;SDS011;10591;52.532;13.348;2022-11-12T05:07:00;5.42;;;4.78;;
20861;SDS011;10591;52.532;13.348;2022-11-12T05:09:30;6.10;;;4.70;;
20861;SDS011;10591;52.532;13.348;2022-11-12T05:12:01;6.90;;;4.70;;
20861;SDS011;10591;52.532;13.348;2022-11-12T05:14:32;6.40;;;5.07;;
20861;SDS011;10591;52.532;13.348;2022-11-12T05:17:02;6.37;;;4.47;;
20861;SDS011;10591;52.532;13.348;2022-11-12T05:19:33;6.37;;;4.63;;
20861;SDS011;10591;52.532;13.348;2022-11-12T05:22:04;5.70;;;4.72;;
20861;SDS011;10591;52.532;13.348;2022-11-12T05:24:36;7.07;;;4.90;;
20861;SDS011;10591;52.532;13.348;2022-11-12T05:27:12;7.70;;;5.08;;
20861;SDS011;10591;52.532;13.348;2022-11-12T05:29:44;6.03;;;5.00;;
20861;SDS011;10591;52.532;13.348;2022-11-12T05:32:15;4.80;;;4.33;;
20861;SDS011;10591;52.532;13.348;2022-11-12T05:34:46;5.90;;;4.83;;
20861;SDS011;10591;52.532;13.348;2022-11-12T05:37:16;6.03;;;5.10;;
20861;SDS011;10591;52.532;13.348;2022-11-12T05:39:47;8.28;;;5.50;;
20861;SDS011;10591;52.532;13.348;2022-11-12T05:42:18;8.60;;;4.97;;
20861;SDS011;10591;52.532;13.348;2022-11-12T05:44:48;7.47;;;5.12;;
20861;SDS011;10591;52.532;13.348;2022-11-12T05:47:18;10.72;;;5.83;;
20861;SDS011;10591;52.532;13.348;2022-11-12T05:49:49;6.07;;;5.20;;
20861;SDS011;10591;52.532;13.348;2022-11-12T05:52:19;6.53;;;5.13;;
20861;SDS011;10591;52.532;13.348;2022-11-12T05:54:49;5.53;;;4.97;;
20861;SDS011;10591;52.532;13.348;2022-11-12T05:57:20;5.63;;;4.90;;
20861;SDS011;10591;52.532;13.348;2022-11-12T05:59:50;7.03;;;5.05;;
20861;SDS011;10591;52.532;13.348;2022-11-12T06:02:20;5.60;;;5.05;;
20861;SDS011;10591;52.532;13.348;2022-11-12T06:04:51;6.37;;;4.87;;
20861;SDS011;10591;52.532;13.348;2022-11-12T06:07:21;5.97;;;4.50;;
20861;SDS011;10591;52.532;13.348;2022-11-12T06:09:52;9.77;;;5.23;;
20861;SDS011;10591;52.532;13.348;2022-11-12T06:12:22;6.07;;;5.00;;
20861;SDS011;10591;52.532;13.348;2022-11-12T06:14:52;6.23;;;4.40;;
20861;SDS011;10591;52.532;13.348;2022-11-12T06:17:23;7.03;;;4.97;;
20861;SDS011;10591;52.532;13.348;2022-11-12T06:19:53;7.47;;;4.47;;
20861;SDS011;10591;52.532;13.348;2022-11-12T06:22:24;5.97;;;4.58;;
20861;SDS011;10591;52.532;13.348;2022-11-12T06:24:54;6.20;;;4.70;;
20861;SDS011;10591;52.532;13.348;2022-11-12T06:27:24;7.28;;;4.37;;
20861;SDS011;10591;52.532;13.348;2022-11-12T06:29:55;6.53;;;4.90;;
20861;SDS011;10591;52.532;13.348;2022-11-12T06:32:25;5.78;;;4.83;;
20861;SDS011;10591;52.532;13.348;2022-11-12T06:34:56;6.97;;;4.87;;
20861;SDS011;10591;52.532;13.348;2022-11-12T06:37:26;6.63;;;4.70;;
20861;SDS011;10591;52.532;13.348;2022-11-12T06:39:57;7.27;;;4.77;;
20861;SDS011;10591;52.532;13.348;2022-11-12T06:42:27;6.35;;;4.95;;
20861;SDS011;10591;52.532;13.348;2022-11-12T06:44:57;8.30;;;5.77;;
20861;SDS011;10591;52.532;13.348;2022-11-12T06:47:28;6.83;;;5.27;;
20861;SDS011;10591;52.532;13.348;2022-11-12T06:49:58;9.03;;;5.90;;
20861;SDS011;10591;52.532;13.348;2022-11-12T06:52:30;8.47;;;5.60;;
20861;SDS011;10591;52.532;13.348;2022-11-12T06:55:00;7.35;;;5.05;;
20861;SDS011;10591;52.532;13.348;2022-11-12T06:57:30;8.20;;;5.15;;
20861;SDS011;10591;52.532;13.348;2022-11-12T07:00:01;5.67;;;4.57;;
20861;SDS011;10591;52.532;13.348;2022-11-12T07:02:32;7.58;;;5.47;;
20861;SDS011;10591;52.532;13.348;2022-11-12T07:05:02;7.63;;;5.17;;
20861;SDS011;10591;52.532;13.348;2022-11-12T07:07:33;8.50;;;5.77;;
20861;SDS011;10591;52.532;13.348;2022-11-12T07:10:04;7.12;;;5.25;;
20861;SDS011;10591;52.532;13.348;2022-11-12T07:12:35;6.00;;;5.17;;
20861;SDS011;10591;52.532;13.348;2022-11-12T07:15:05;6.40;;;5.30;;
20861;SDS011;10591;52.532;13.348;2022-11-12T07:17:36;8.07;;;5.87;;
20861;SDS011;10591;52.532;13.348;2022-11-12T07:20:07;9.00;;;5.75;;
20861;SDS011;10591;52.532;13.348;2022-11-12T07:22:38;6.58;;;5.12;;
20861;SDS011;10591;52.532;13.348;2022-11-12T07:25:09;8.65;;;6.60;;
20861;SDS011;10591;52.532;13.348;2022-11-12T07:27:39;8.25;;;6.05;;
20861;SDS011;10591;52.532;13.348;2022-11-12T07:30:10;10.95;;;7.37;;
20861;SDS011;10591;52.532;13.348;2022-11-12T07:32:41;7.45;;;6.15;;
20861;SDS011;10591;52.532;13.348;2022-11-12T07:35:13;11.38;;;7.17;;
20861;SDS011;10591;52.532;13.348;2022-11-12T07:37:43;8.97;;;6.27;;
20861;SDS011;10591;52.532;13.348;2022-11-12T07:40:14;9.65;;;6.60;;
20861;SDS011;10591;52.532;13.348;2022-11-12T07:42:44;9.93;;;6.25;;
20861;SDS011;10591;52.532;13.348;2022-11-12T07:45:15;8.35;;;6.15;;
20861;SDS011;10591;52.532;13.348;2022-11-12T07:47:45;9.60;;;6.33;;
20861;SDS011;10591;52.532;13.348;2022-11-12T07:50:16;8.28;;;6.00;;
20861;SDS011;10591;52.532;13.348;2022-11-12T07:52:46;9.78;;;6.40;;
20861;SDS011;10591;52.532;13.348;2022-11-12T07:55:16;7.97;;;6.13;;
20861;SDS011;10591;52.532;13.348;2022-11-12T07:57:47;8.10;;;6.20;;
20861;SDS011;10591;52.532;13.348;2022-11-12T08:00:17;9.60;;;6.15;;
20861;SDS011;10591;52.532;13.348;2022-11-12T08:02:48;8.00;;;6.67;;
20861;SDS011;10591;52.532;13.348;2022-11-12T08:05:18;7.42;;;5.72;;
20861;SDS011;10591;52.532;13.348;2022-11-12T08:07:49;9.68;;;6.45;;
20861;SDS011;10591;52.532;13.348;2022-11-12T08:10:20;9.53;;;6.08;;
20861;SDS011;10591;52.532;13.348;2022-11-12T08:12:50;9.88;;;6.35;;
20861;SDS011;10591;52.532;13.348;2022-11-12T08:15:22;8.53;;;6.20;;
20861;SDS011;10591;52.532;13.348;2022-11-12T08:17:53;9.10;;;6.60;;
20861;SDS011;10591;52.532;13.348;2022-11-12T08:20:23;9.95;;;6.95;;
20861;SDS011;10591;52.532;13.348;2022-11-12T08:22:57;9.03;;;6.95;;
20861;SDS011;10591;52.532;13.348;2022-11-12T08:25:29;8.65;;;6.80;;
20861;SDS011;10591;52.532;13.348;2022-11-12T08:28:00;10.20;;;7.20;;
20861;SDS011;10591;52.532;13.348;2022-11-12T08:30:30;7.53;;;6.25;;
20861;SDS011;10591;52.532;13.348;2022-11-12T08:33:02;9.25;;;7.00;;
20861;SDS011;10591;52.532;13.348;2022-11-12T08:35:36;9.93;;;7.12;;
20861;SDS011;10591;52.532;13.348;2022-11-12T08:38:07;10.98;;;7.22;;
20861;SDS011;10591;52.532;13.348;2022-11-12T08:40:38;11.40;;;7.67;;
20861;SDS011;10591;52.532;13.348;2022-11-12T08:43:09;12.88;;;7.75;;
20861;SDS011;10591;52.532;13.348;2022-11-12T08:45:40;9.10;;;7.03;;
20861;SDS011;10591;52.532;13.348;2022-11-12T08:48:13;10.72;;;7.47;;
20861;SDS011;10591;52.532;13.348;2022-11-12T08:50:42;11.83;;;7.13;;
20861;SDS011;10591;52.532;13.348;2022-11-12T08:53:13;10.23;;;7.42;;
20861;SDS011;10591;52.532;13.348;2022-11-12T08:55:43;10.10;;;7.28;;
20861;SDS011;10591;52.532;13.348;2022-11-12T08:58:14;12.10;;;7.50;;
20861;SDS011;10591;52.532;13.348;2022-11-12T09:00:44;14.45;;;10.38;;
20861;SDS011;10591;52.532;13.348;2022-11-12T09:03:16;12.13;;;9.40;;
20861;SDS011;10591;52.532;13.348;2022-11-12T09:05:48;14.53;;;9.70;;
20861;SDS011;10591;52.532;13.348;2022-11-12T09:08:20;14.70;;;9.58;;
20861;SDS011;10591;52.532;13.348;2022-11-12T09:10:53;16.82;;;9.28;;
20861;SDS011;10591;52.532;13.348;2022-11-12T09:13:26;11.85;;;8.98;;
20861;SDS011;10591;52.532;13.348;2022-11-12T09:16:01;11.93;;;8.68;;
20861;SDS011;10591;52.532;13.348;2022-11-12T09:18:34;15.75;;;8.95;;
20861;SDS011;10591;52.532;13.348;2022-11-12T09:21:09;14.05;;;9.55;;
20861;SDS011;10591;52.532;13.348;2022-11-12T09:23:40;13.85;;;10.23;;
20861;SDS011;10591;52.532;13.348;2022-11-12T09:26:10;16.42;;;10.30;;
20861;SDS011;10591;52.532;13.348;2022-11-12T09:28:41;12.98;;;9.83;;
20861;SDS011;10591;52.532;13.348;2022-11-12T09:31:12;15.15;;;10.20;;
20861;SDS011;10591;52.532;13.348;2022-11-12T09:33:42;15.48;;;10.40;;
20861;SDS011;10591;52.532;13.348;2022-11-12T09:36:12;13.50;;;9.75;;
20861;SDS011;10591;52.532;13.348;2022-11-12T09:38:44;13.40;;;10.18;;
20861;SDS011;10591;52.532;13.348;2022-11-12T09:41:16;14.00;;;10.08;;
20861;SDS011;10591;52.532;13.348;2022-11-12T09:43:59;13.70;;;10.80;;
20861;SDS011;10591;52.532;13.348;2022-11-12T09:49:05;14.03;;;10.28;;
20861;SDS011;10591;52.532;13.348;2022-11-12T09:51:50;15.75;;;11.22;;
20861;SDS011;10591;52.532;13.348;2022-11-12T09:54:31;14.55;;;10.03;;
20861;SDS011;10591;52.532;13.348;2022-11-12T09:57:03;15.15;;;10.65;;
20861;SDS011;10591;52.532;13.348;2022-11-12T09:59:36;14.00;;;10.93;;
20861;SDS011;10591;52.532;13.348;2022-11-12T10:02:17;14.98;;;10.25;;
20861;SDS011;10591;52.532;13.348;2022-11-12T10:04:55;14.45;;;9.33;;
20861;SDS011;10591;52.532;13.348;2022-11-12T10:10:28;14.63;;;10.23;;
20861;SDS011;10591;52.532;13.348;2022-11-12T10:13:01;15.08;;;9.60;;
20861;SDS011;10591;52.532;13.348;2022-11-12T10:15:51;14.98;;;10.60;;
20861;SDS011;10591;52.532;13.348;2022-11-12T10:19:09;13.80;;;10.00;;
20861;SDS011;10591;52.532;13.348;2022-11-12T10:24:22;16.65;;;10.23;;
20861;SDS011;10591;52.532;13.348;2022-11-12T10:26:55;15.38;;;10.25;;
20861;SDS011;10591;52.532;13.348;2022-11-12T10:29:37;14.40;;;10.00;;
20861;SDS011;10591;52.532;13.348;2022-11-12T10:32:18;16.57;;;10.43;;
20861;SDS011;10591;52.532;13.348;2022-11-12T10:34:48;16.10;;;10.72;;
20861;SDS011;10591;52.532;13.348;2022-11-12T10:37:31;16.10;;;9.65;;
20861;SDS011;10591;52.532;13.348;2022-11-12T10:40:56;14.60;;;9.40;;
20861;SDS011;10591;52.532;13.348;2022-11-12T10:42:59;18.85;;;11.45;;
20861;SDS011;10591;52.532;13.348;2022-11-12T10:45:31;15.85;;;10.63;;
20861;SDS011;10591;52.532;13.348;2022-11-12T10:48:02;16.52;;;11.33;;
20861;SDS011;10591;52.532;13.348;2022-11-12T10:50:39;14.87;;;10.40;;
20861;SDS011;10591;52.532;13.348;2022-11-12T10:53:11;15.38;;;10.23;;
20861;SDS011;10591;52.532;13.348;2022-11-12T10:56:00;15.68;;;11.03;;
20861;SDS011;10591;52.532;13.348;2022-11-12T10:58:28;15.32;;;10.20;;
20861;SDS011;10591;52.532;13.348;2022-11-12T11:01:00;16.25;;;10.08;;
20861;SDS011;10591;52.532;13.348;2022-11-12T11:03:44;13.08;;;9.45;;
20861;SDS011;10591;52.532;13.348;2022-11-12T11:06:18;13.45;;;9.48;;
20861;SDS011;10591;52.532;13.348;2022-11-12T11:08:53;13.18;;;8.83;;
20861;SDS011;10591;52.532;13.348;2022-11-12T11:11:49;12.53;;;8.53;;
20861;SDS011;10591;52.532;13.348;2022-11-12T11:17:04;15.72;;;10.08;;
20861;SDS011;10591;52.532;13.348;2022-11-12T11:19:37;15.50;;;9.60;;
20861;SDS011;10591;52.532;13.348;2022-11-12T11:22:16;13.98;;;7.90;;
20861;SDS011;10591;52.532;13.348;2022-11-12T11:24:52;12.45;;;8.68;;
20861;SDS011;10591;52.532;13.348;2022-11-12T11:30:19;12.95;;;8.40;;
20861;SDS011;10591;52.532;13.348;2022-11-12T11:38:51;10.68;;;7.47;;
20861;SDS011;10591;52.532;13.348;2022-11-12T11:47:24;11.00;;;6.60;;
20861;SDS011;10591;52.532;13.348;2022-11-12T11:50:01;9.60;;;7.20;;
20861;SDS011;10591;52.532;13.348;2022-11-12T11:55:13;14.43;;;8.00;;
20861;SDS011;10591;52.532;13.348;2022-11-12T11:58:03;11.08;;;6.83;;
20861;SDS011;10591;52.532;13.348;2022-11-12T12:00:55;11.48;;;6.62;;
20861;SDS011;10591;52.532;13.348;2022-11-12T12:03:53;13.18;;;7.20;;
20861;SDS011;10591;52.532;13.348;2022-11-12T12:06:19;12.93;;;7.08;;
20861;SDS011;10591;52.532;13.348;2022-11-12T12:09:02;11.08;;;7.47;;
20861;SDS011;10591;52.532;13.348;2022-11-12T12:11:57;10.25;;;7.12;;
20861;SDS011;10591;52.532;13.348;2022-11-12T12:22:50;12.13;;;7.40;;
20861;SDS011;10591;52.532;13.348;2022-11-12T12:25:32;9.08;;;6.85;;
20861;SDS011;10591;52.532;13.348;2022-11-12T12:28:55;10.68;;;7.15;;
20861;SDS011;10591;52.532;13.348;2022-11-12T12:30:44;7.90;;;7.05;;
20861;SDS011;10591;52.532;13.348;2022-11-12T12:33:27;9.70;;;7.12;;
20861;SDS011;10591;52.532;13.348;2022-11-12T12:36:08;9.38;;;6.97;;
20861;SDS011;10591;52.532;13.348;2022-11-12T12:38:43;11.22;;;7.92;;
20861;SDS011;10591;52.532;13.348;2022-11-12T12:41:34;9.38;;;6.60;;
20861;SDS011;10591;52.532;13.348;2022-11-12T12:44:13;14.83;;;8.00;;
20861;SDS011;10591;52.532;13.348;2022-11-12T12:46:44;10.10;;;7.50;;
20861;SDS011;10591;52.532;13.348;2022-11-12T12:49:22;11.05;;;7.75;;
20861;SDS011;10591;52.532;13.348;2022-11-12T12:51:50;10.23;;;7.20;;
20861;SDS011;10591;52.532;13.348;2022-11-12T13:03:02;10.60;;;6.95;;
20861;SDS011;10591;52.532;13.348;2022-11-12T13:05:35;11.60;;;7.37;;
20861;SDS011;10591;52.532;13.348;2022-11-12T13:08:17;9.88;;;7.15;;
20861;SDS011;10591;52.532;13.348;2022-11-12T13:10:49;12.05;;;6.80;;
20861;SDS011;10591;52.532;13.348;2022-11-12T13:15:57;10.23;;;7.30;;
20861;SDS011;10591;52.532;13.348;2022-11-12T13:21:14;11.88;;;7.60;;
20861;SDS011;10591;52.532;13.348;2022-11-12T13:23:50;10.63;;;6.72;;
20861;SDS011;10591;52.532;13.348;2022-11-12T13:26:42;9.53;;;6.62;;
20861;SDS011;10591;52.532;13.348;2022-11-12T13:37:51;10.05;;;6.40;;
20861;SDS011;10591;52.532;13.348;2022-11-12T13:48:44;9.98;;;6.65;;
20861;SDS011;10591;52.532;13.348;2022-11-12T13:51:18;10.25;;;6.80;;
20861;SDS011;10591;52.532;13.348;2022-11-12T13:53:50;11.70;;;6.78;;
20861;SDS011;10591;52.532;13.348;2022-11-12T13:56:33;10.90;;;6.75;;
20861;SDS011;10591;52.532;13.348;2022-11-12T13:59:12;12.20;;;6.78;;
20861;SDS011;10591;52.532;13.348;2022-11-12T14:01:46;10.68;;;6.28;;
20861;SDS011;10591;52.532;13.348;2022-11-12T14:04:19;15.58;;;11.83;;
20861;SDS011;10591;52.532;13.348;2022-11-12T14:06:52;14.90;;;10.95;;
20861;SDS011;10591;52.532;13.348;2022-11-12T14:19:05;11.48;;;6.60;;
20861;SDS011;10591;52.532;13.348;2022-11-12T14:20:42;10.95;;;6.65;;
20861;SDS011;10591;52.532;13.348;2022-11-12T14:23:14;10.30;;;6.87;;
20861;SDS011;10591;52.532;13.348;2022-11-12T14:25:50;10.32;;;6.42;;
20861;SDS011;10591;52.532;13.348;2022-11-12T14:28:29;10.65;;;6.70;;
20861;SDS011;10591;52.532;13.348;2022-11-12T14:31:01;12.00;;;6.87;;
20861;SDS011;10591;52.532;13.348;2022-11-12T14:33:32;8.83;;;6.47;;
20861;SDS011;10591;52.532;13.348;2022-11-12T14:36:09;9.65;;;6.50;;
20861;SDS011;10591;52.532;13.348;2022-11-12T14:38:38;10.00;;;6.47;;
20861;SDS011;10591;52.532;13.348;2022-11-12T14:41:23;11.63;;;6.95;;
20861;SDS011;10591;52.532;13.348;2022-11-12T14:43:57;10.10;;;6.72;;
20861;SDS011;10591;52.532;13.348;2022-11-12T14:46:38;11.15;;;6.53;;
20861;SDS011;10591;52.532;13.348;2022-11-12T14:51:52;14.83;;;6.97;;
20861;SDS011;10591;52.532;13.348;2022-11-12T14:57:02;10.85;;;6.78;;
20861;SDS011;10591;52.532;13.348;2022-11-12T14:59:33;12.47;;;7.42;;
20861;SDS011;10591;52.532;13.348;2022-11-12T15:02:07;11.43;;;7.55;;
20861;SDS011;10591;52.532;13.348;2022-11-12T15:04:50;12.63;;;7.45;;
20861;SDS011;10591;52.532;13.348;2022-11-12T15:07:22;12.93;;;7.03;;
20861;SDS011;10591;52.532;13.348;2022-11-12T15:09:58;14.25;;;7.83;;
20861;SDS011;10591;52.532;13.348;2022-11-12T15:12:30;9.83;;;6.87;;
20861;SDS011;10591;52.532;13.348;2022-11-12T15:15:09;12.45;;;7.25;;
20861;SDS011;10591;52.532;13.348;2022-11-12T15:17:55;10.38;;;7.72;;
20861;SDS011;10591;52.532;13.348;2022-11-12T15:20:27;10.38;;;7.50;;
20861;SDS011;10591;52.532;13.348;2022-11-12T15:22:58;10.88;;;7.87;;
20861;SDS011;10591;52.532;13.348;2022-11-12T15:25:29;11.68;;;7.85;;
20861;SDS011;10591;52.532;13.348;2022-11-12T15:31:07;11.45;;;8.10;;
20861;SDS011;10591;52.532;13.348;2022-11-12T15:33:48;13.45;;;8.13;;
20861;SDS011;10591;52.532;13.348;2022-11-12T15:36:19;11.78;;;7.92;;
20861;SDS011;10591;52.532;13.348;2022-11-12T15:38:52;12.37;;;8.08;;
20861;SDS011;10591;52.532;13.348;2022-11-12T15:41:26;14.25;;;8.20;;
20861;SDS011;10591;52.532;13.348;2022-11-12T15:43:59;12.65;;;8.23;;
20861;SDS011;10591;52.532;13.348;2022-11-12T15:46:30;16.60;;;8.45;;
20861;SDS011;10591;52.532;13.348;2022-11-12T15:49:00;14.65;;;9.13;;
20861;SDS011;10591;52.532;13.348;2022-11-12T15:51:31;15.65;;;9.50;;
20861;SDS011;10591;52.532;13.348;2022-11-12T15:54:01;15.72;;;11.08;;
20861;SDS011;10591;52.532;13.348;2022-11-12T15:56:32;19.12;;;9.20;;
20861;SDS011;10591;52.532;13.348;2022-11-12T15:59:02;15.35;;;10.20;;
20861;SDS011;10591;52.532;13.348;2022-11-12T16:01:33;15.98;;;10.38;;
20861;SDS011;10591;52.532;13.348;2022-11-12T16:04:03;16.07;;;10.40;;
20861;SDS011;10591;52.532;13.348;2022-11-12T16:06:34;15.90;;;9.98;;
20861;SDS011;10591;52.532;13.348;2022-11-12T16:09:04;16.42;;;10.70;;
20861;SDS011;10591;52.532;13.348;2022-11-12T16:11:35;15.75;;;9.68;;
20861;SDS011;10591;52.532;13.348;2022-11-12T16:14:08;16.57;;;10.85;;
20861;SDS011;10591;52.532;13.348;2022-11-12T16:16:41;16.12;;;11.00;;
20861;SDS011;10591;52.532;13.348;2022-11-12T16:19:12;18.05;;;11.80;;
20861;SDS011;10591;52.532;13.348;2022-11-12T16:21:44;17.85;;;11.80;;
20861;SDS011;10591;52.532;13.348;2022-11-12T16:24:14;17.62;;;12.60;;
20861;SDS011;10591;52.532;13.348;2022-11-12T16:26:45;22.37;;;13.75;;
20861;SDS011;10591;52.532;13.348;2022-11-12T16:29:15;18.77;;;13.08;;
20861;SDS011;10591;52.532;13.348;2022-11-12T16:31:46;23.02;;;13.48;;